createdAt,value
2023-04-28T00:00:44.724Z,19.51
2023-04-28T00:03:13.480Z,19.40
2023-04-28T00:05:42.203Z,19.73
2023-04-28T00:08:10.632Z,20.27
2023-04-28T00:10:38.933Z,20.17
2023-04-28T00:13:07.307Z,20.66
2023-04-28T00:15:36.119Z,21.18
2023-04-28T00:18:04.440Z,21.52
2023-04-28T00:20:32.935Z,21.54
2023-04-28T00:23:01.315Z,21.30
2023-04-28T00:25:29.593Z,21.42
2023-04-28T00:27:57.904Z,21.51
2023-04-28T00:30:26.192Z,21.59
2023-04-28T00:32:54.633Z,21.50
2023-04-28T00:35:23.147Z,21.08
2023-04-28T00:37:51.646Z,21.07
2023-04-28T00:40:19.924Z,21.10
2023-04-28T00:42:48.636Z,21.55
2023-04-28T00:45:17.179Z,21.55
2023-04-28T00:47:46.083Z,21.76
2023-04-28T00:50:14.814Z,22.15
2023-04-28T00:52:44.658Z,22.43
2023-04-28T00:55:16.287Z,23.09
2023-04-28T00:57:44.671Z,23.20
2023-04-28T01:00:13.604Z,24.29
2023-04-28T01:02:42.072Z,24.51
2023-04-28T01:05:11.290Z,25.46
2023-04-28T01:07:39.955Z,25.41
2023-04-28T01:10:09.012Z,26.61
2023-04-28T01:12:37.726Z,26.65
2023-04-28T01:15:06.585Z,27.29
2023-04-28T01:17:35.221Z,27.47
2023-04-28T01:20:03.775Z,27.63
2023-04-28T01:22:32.573Z,27.23
2023-04-28T01:25:01.209Z,27.96
2023-04-28T01:27:29.585Z,27.51
2023-04-28T01:29:59.386Z,28.12
2023-04-28T01:32:27.684Z,27.53
2023-04-28T01:34:55.955Z,27.96
2023-04-28T01:37:24.845Z,27.82
2023-04-28T01:39:53.213Z,28.54
2023-04-28T01:42:21.554Z,28.20
2023-04-28T01:44:49.817Z,28.47
2023-04-28T01:47:18.051Z,29.08
2023-04-28T01:49:48.400Z,29.21
2023-04-28T01:52:16.693Z,28.82
2023-04-28T01:54:45.014Z,29.05
2023-04-28T01:57:14.424Z,29.21
2023-04-28T01:59:44.132Z,29.27
2023-04-28T02:02:12.526Z,29.63
2023-04-28T02:04:41.200Z,29.95
2023-04-28T02:07:09.410Z,29.96
2023-04-28T02:09:37.659Z,30.73
2023-04-28T02:12:06.091Z,30.61
2023-04-28T02:14:34.321Z,31.62
2023-04-28T02:17:04.150Z,31.63
2023-04-28T02:19:32.789Z,31.90
2023-04-28T02:22:01.121Z,31.85
2023-04-28T02:24:29.371Z,32.46
2023-04-28T02:26:58.183Z,32.29
2023-04-28T02:29:28.715Z,32.22
2023-04-28T02:31:57.402Z,32.50
2023-04-28T02:34:25.715Z,32.31
2023-04-28T02:36:53.981Z,32.32
2023-04-28T02:39:27.641Z,32.81
2023-04-28T02:41:55.927Z,33.01
2023-04-28T02:44:24.179Z,32.98
2023-04-28T02:46:52.485Z,33.40
2023-04-28T02:49:20.699Z,33.03
2023-04-28T02:51:48.931Z,33.17
2023-04-28T02:54:17.389Z,33.22
2023-04-28T02:56:46.082Z,33.29
2023-04-28T02:59:14.359Z,33.81
2023-04-28T03:01:42.747Z,33.39
2023-04-28T03:04:11.237Z,33.78
2023-04-28T03:06:39.583Z,34.02
2023-04-28T03:09:07.857Z,34.21
2023-04-28T03:11:36.241Z,34.24
2023-04-28T03:14:04.483Z,34.55
2023-04-28T03:16:33.187Z,34.56
2023-04-28T03:19:01.664Z,35.04
2023-04-28T03:21:29.871Z,34.76
2023-04-28T03:23:58.050Z,35.28
2023-04-28T03:26:26.299Z,35.26
2023-04-28T03:28:54.553Z,35.45
2023-04-28T03:31:22.822Z,34.96
2023-04-28T03:33:51.067Z,35.41
2023-04-28T03:36:19.298Z,35.63
2023-04-28T03:38:47.957Z,35.67
2023-04-28T03:41:16.192Z,35.78
2023-04-28T03:43:44.355Z,36.09
2023-04-28T03:46:12.663Z,36.29
2023-04-28T03:48:40.980Z,36.11
2023-04-28T03:51:09.204Z,36.57
2023-04-28T03:53:37.414Z,36.70
2023-04-28T03:56:05.861Z,36.72
2023-04-28T03:58:34.092Z,37.00
2023-04-28T04:01:02.576Z,36.95
2023-04-28T04:03:31.272Z,37.34
2023-04-28T04:06:00.217Z,37.60
2023-04-28T04:08:28.946Z,37.39
2023-04-28T04:10:57.220Z,37.74
2023-04-28T04:13:25.464Z,37.89
2023-04-28T04:15:53.881Z,37.87
2023-04-28T04:18:22.200Z,38.03
2023-04-28T04:20:51.353Z,38.00
2023-04-28T04:23:19.556Z,38.02
2023-04-28T04:25:48.193Z,37.98
2023-04-28T04:28:17.073Z,38.15
2023-04-28T04:30:46.126Z,38.45
2023-04-28T04:33:14.344Z,38.22
2023-04-28T04:35:42.681Z,38.66
2023-04-28T04:38:11.342Z,38.59
2023-04-28T04:40:39.533Z,38.83
2023-04-28T04:43:07.734Z,38.77
2023-04-28T04:45:36.040Z,39.34
2023-04-28T04:48:04.652Z,39.00
2023-04-28T04:50:32.870Z,39.08
2023-04-28T04:53:01.087Z,39.27
2023-04-28T04:55:29.479Z,39.38
2023-04-28T04:57:57.730Z,39.48
2023-04-28T05:00:26.005Z,39.78
2023-04-28T05:02:54.542Z,39.85
2023-04-28T05:05:23.199Z,40.09
2023-04-28T05:07:52.146Z,40.41
2023-04-28T05:10:20.433Z,40.38
2023-04-28T05:12:49.286Z,40.63
2023-04-28T05:15:17.763Z,40.69
2023-04-28T05:17:46.337Z,40.78
2023-04-28T05:20:14.661Z,40.95
2023-04-28T05:22:42.857Z,41.16
2023-04-28T05:25:11.269Z,41.53
2023-04-28T05:27:40.500Z,41.85
2023-04-28T05:30:12.076Z,42.01
2023-04-28T05:32:40.303Z,42.00
2023-04-28T05:35:08.883Z,42.20
2023-04-28T05:37:38.614Z,42.35
2023-04-28T05:40:08.763Z,42.34
2023-04-28T05:42:37.269Z,42.45
2023-04-28T05:45:07.702Z,42.88
2023-04-28T05:47:36.210Z,43.05
2023-04-28T05:50:04.576Z,43.14
2023-04-28T05:52:32.791Z,43.16
2023-04-28T05:55:01.000Z,43.15
2023-04-28T05:57:32.034Z,43.22
2023-04-28T06:00:04.937Z,43.21
2023-04-28T06:02:33.341Z,43.07
2023-04-28T06:05:01.938Z,43.18
2023-04-28T06:07:30.425Z,43.39
2023-04-28T06:09:58.613Z,43.52
2023-04-28T06:12:27.161Z,43.70
2023-04-28T06:14:56.293Z,43.59
2023-04-28T06:17:25.032Z,43.82
2023-04-28T06:19:55.289Z,44.07
2023-04-28T06:22:23.471Z,44.14
2023-04-28T06:24:51.639Z,44.33
2023-04-28T06:27:20.032Z,44.54
2023-04-28T06:29:48.470Z,44.57
2023-04-28T06:32:16.713Z,44.58
2023-04-28T06:34:44.960Z,44.82
2023-04-28T06:37:13.372Z,44.76
2023-04-28T06:39:41.672Z,44.75
2023-04-28T06:42:09.879Z,45.08
2023-04-28T06:44:38.075Z,45.29
2023-04-28T06:47:06.624Z,45.42
2023-04-28T06:49:34.909Z,45.63
2023-04-28T06:52:03.123Z,45.97
2023-04-28T06:54:31.966Z,46.24
2023-04-28T06:57:00.323Z,46.38
2023-04-28T06:59:28.704Z,46.49
2023-04-28T07:01:57.884Z,46.55
2023-04-28T07:04:26.295Z,46.96
2023-04-28T07:06:54.847Z,46.96
2023-04-28T07:11:51.570Z,47.26
2023-04-28T07:14:19.928Z,47.36
2023-04-28T07:16:48.773Z,47.60
2023-04-28T07:19:17.224Z,47.77
2023-04-28T07:21:46.204Z,48.07
2023-04-28T07:24:14.559Z,48.18
2023-04-28T07:26:42.879Z,48.29
2023-04-28T07:29:14.275Z,48.71
2023-04-28T07:31:42.598Z,48.86
2023-04-28T07:34:10.839Z,48.99
2023-04-28T07:36:39.038Z,49.10
2023-04-28T07:39:07.869Z,49.22
2023-04-28T07:41:39.755Z,49.48
2023-04-28T07:44:09.093Z,49.77
2023-04-28T07:46:37.777Z,49.94
2023-04-28T07:49:06.238Z,49.90
2023-04-28T07:51:34.676Z,50.17
2023-04-28T07:54:02.911Z,50.38
2023-04-28T07:56:31.875Z,50.39
2023-04-28T07:59:00.107Z,50.69
2023-04-28T08:01:28.399Z,50.74
2023-04-28T08:03:56.798Z,50.95
2023-04-28T08:06:25.296Z,51.37
2023-04-28T08:08:53.547Z,51.45
2023-04-28T08:11:23.240Z,51.78
2023-04-28T08:13:51.430Z,51.65
2023-04-28T08:16:20.482Z,51.75
2023-04-28T08:18:49.232Z,51.88
2023-04-28T08:21:17.536Z,52.28
2023-04-28T08:23:45.759Z,52.35
2023-04-28T08:26:14.246Z,52.53
2023-04-28T08:28:42.490Z,52.80
2023-04-28T08:31:10.802Z,52.87
2023-04-28T08:33:39.890Z,52.84
2023-04-28T08:36:08.781Z,53.04
2023-04-28T08:38:36.977Z,53.22
2023-04-28T08:41:06.131Z,53.17
2023-04-28T08:43:36.944Z,53.01
2023-04-28T08:46:08.963Z,53.03
2023-04-28T08:48:42.495Z,52.90
2023-04-28T08:51:15.108Z,52.97
2023-04-28T08:54:11.715Z,53.30
2023-04-28T08:56:38.505Z,52.71
2023-04-28T08:59:06.709Z,52.49
2023-04-28T09:01:35.448Z,52.33
2023-04-28T09:04:04.628Z,52.15
2023-04-28T09:06:38.259Z,52.16
2023-04-28T09:09:34.228Z,52.26
2023-04-28T09:12:05.431Z,51.96
2023-04-28T09:14:36.125Z,51.88
2023-04-28T09:17:10.438Z,52.00
2023-04-28T09:19:40.245Z,51.93
2023-04-28T09:22:24.864Z,52.15
2023-04-28T09:24:55.973Z,52.13
2023-04-28T09:27:30.298Z,52.11
2023-04-28T09:29:58.513Z,52.23
2023-04-28T09:32:28.809Z,52.01
2023-04-28T09:35:00.501Z,52.29
2023-04-28T09:37:32.544Z,52.37
2023-04-28T09:40:08.138Z,52.63
2023-04-28T09:42:40.734Z,52.55
2023-04-28T09:45:10.941Z,52.76
2023-04-28T09:47:41.825Z,52.72
2023-04-28T09:50:13.625Z,52.94
2023-04-28T09:52:47.037Z,52.87
2023-04-28T09:55:16.260Z,53.00
2023-04-28T09:57:50.060Z,53.07
2023-04-28T10:00:19.628Z,53.17
2023-04-28T10:02:50.804Z,53.17
2023-04-28T10:05:19.448Z,53.28
2023-04-28T10:07:48.292Z,53.22
2023-04-28T10:10:17.175Z,53.69
2023-04-28T10:12:45.916Z,53.79
2023-04-28T10:15:15.041Z,53.84
2023-04-28T10:17:43.304Z,53.93
2023-04-28T10:20:12.779Z,54.03
2023-04-28T10:22:53.385Z,54.03
2023-04-28T10:25:36.985Z,54.26
2023-04-28T10:28:09.716Z,54.13
2023-04-28T10:30:38.901Z,54.26
2023-04-28T10:33:16.287Z,54.57
2023-04-28T10:35:48.653Z,54.46
2023-04-28T10:38:18.056Z,54.60
2023-04-28T10:40:48.485Z,54.78
2023-04-28T10:43:36.022Z,54.83
2023-04-28T10:46:08.438Z,54.96
2023-04-28T10:48:40.755Z,54.98
2023-04-28T10:51:10.414Z,55.11
2023-04-28T10:53:49.132Z,55.11
2023-04-28T10:56:27.843Z,55.35
2023-04-28T10:58:57.856Z,55.38
2023-04-28T11:01:27.911Z,55.28
2023-04-28T11:04:16.833Z,55.54
2023-04-28T11:06:47.834Z,55.48
2023-04-28T11:09:16.018Z,55.41
2023-04-28T11:11:59.073Z,55.67
2023-04-28T11:14:27.214Z,55.45
2023-04-28T11:17:03.776Z,55.56
2023-04-28T11:19:40.029Z,55.71
2023-04-28T11:22:19.659Z,55.73
2023-04-28T11:25:01.853Z,55.97
2023-04-28T11:27:35.319Z,55.96
2023-04-28T11:30:03.679Z,56.17
2023-04-28T11:32:36.674Z,56.13
2023-04-28T11:35:10.561Z,56.19
2023-04-28T11:37:39.894Z,56.56
2023-04-28T11:40:15.099Z,56.55
2023-04-28T11:42:50.212Z,56.52
2023-04-28T11:45:18.563Z,56.49
2023-04-28T11:47:47.167Z,56.67
2023-04-28T11:50:16.633Z,56.89
2023-04-28T11:52:53.625Z,56.88
2023-04-28T11:55:22.564Z,57.03
2023-04-28T11:57:51.014Z,57.03
2023-04-28T12:00:22.754Z,56.97
2023-04-28T12:02:51.725Z,57.21
2023-04-28T12:05:22.962Z,57.03
2023-04-28T12:07:51.277Z,57.46
2023-04-28T12:10:20.637Z,57.15
2023-04-28T12:12:52.820Z,57.63
2023-04-28T12:15:22.879Z,57.62
2023-04-28T12:17:51.907Z,57.40
2023-04-28T12:20:39.224Z,57.99
2023-04-28T12:23:08.851Z,57.78
2023-04-28T12:25:45.749Z,58.00
2023-04-28T12:28:14.264Z,58.02
2023-04-28T12:30:45.352Z,57.99
2023-04-28T12:33:28.128Z,58.09
2023-04-28T12:35:58.301Z,58.38
2023-04-28T12:38:28.005Z,58.45
2023-04-28T12:40:56.575Z,58.41
2023-04-28T12:43:25.034Z,58.29
2023-04-28T12:45:57.323Z,58.81
2023-04-28T12:48:26.003Z,58.50
2023-04-28T12:50:54.305Z,58.54
2023-04-28T12:53:22.556Z,58.95
2023-04-28T12:55:50.808Z,59.08
2023-04-28T12:58:19.243Z,58.58
2023-04-28T13:00:47.865Z,58.87
2023-04-28T13:03:16.651Z,58.91
2023-04-28T13:05:45.164Z,58.95
2023-04-28T13:08:14.838Z,59.01
2023-04-28T13:10:43.516Z,59.30
2023-04-28T13:13:11.835Z,59.08
2023-04-28T13:15:40.262Z,59.17
2023-04-28T13:18:08.905Z,59.44
2023-04-28T13:20:37.089Z,59.25
2023-04-28T13:23:05.277Z,59.58
2023-04-28T13:25:33.512Z,59.37
2023-04-28T13:28:02.566Z,59.84
2023-04-28T13:30:30.760Z,59.79
2023-04-28T13:32:59.366Z,59.53
2023-04-28T13:35:28.074Z,59.65
2023-04-28T13:38:02.868Z,60.10
2023-04-28T13:40:31.413Z,60.03
2023-04-28T13:42:59.650Z,59.94
2023-04-28T13:45:28.020Z,60.23
2023-04-28T13:47:56.546Z,60.05
2023-04-28T13:50:24.823Z,60.31
2023-04-28T13:52:53.618Z,60.53
2023-04-28T13:55:28.397Z,60.37
2023-04-28T13:57:57.447Z,60.32
2023-04-28T14:00:25.679Z,60.53
2023-04-28T14:02:54.117Z,60.73
2023-04-28T14:05:23.178Z,60.68
2023-04-28T14:07:51.691Z,60.41
2023-04-28T14:10:20.001Z,60.46
2023-04-28T14:12:48.828Z,60.52
2023-04-28T14:15:18.881Z,60.34
2023-04-28T14:17:47.412Z,60.40
2023-04-28T14:20:15.639Z,60.08
2023-04-28T14:22:44.088Z,60.15
2023-04-28T14:25:12.373Z,59.99
2023-04-28T14:27:40.808Z,60.10
2023-04-28T14:30:09.809Z,60.04
2023-04-28T14:32:40.991Z,59.97
2023-04-28T14:35:10.377Z,59.87
2023-04-28T14:37:38.760Z,59.61
2023-04-28T14:40:08.038Z,59.55
2023-04-28T14:42:38.097Z,59.37
2023-04-28T14:45:11.552Z,59.40
2023-04-28T14:47:41.209Z,59.13
2023-04-28T14:50:10.949Z,58.82
2023-04-28T14:52:40.246Z,58.59
2023-04-28T14:55:08.841Z,58.56
2023-04-28T14:57:38.546Z,58.59
2023-04-28T15:00:08.808Z,58.36
2023-04-28T15:02:38.005Z,58.40
2023-04-28T15:05:06.937Z,58.24
2023-04-28T15:07:35.436Z,58.13
2023-04-28T15:10:03.712Z,58.07
2023-04-28T15:12:32.904Z,57.77
2023-04-28T15:15:01.347Z,57.43
2023-04-28T15:17:29.625Z,57.15
2023-04-28T15:19:58.130Z,57.02
2023-04-28T15:22:26.692Z,56.53
2023-04-28T15:24:56.234Z,56.61
2023-04-28T15:27:24.698Z,56.51
2023-04-28T15:29:53.122Z,56.28
2023-04-28T15:32:24.381Z,56.12
2023-04-28T15:34:52.866Z,56.12
2023-04-28T15:37:42.381Z,55.89
2023-04-28T15:40:13.106Z,55.82
2023-04-28T15:42:49.658Z,55.60
2023-04-28T15:45:19.300Z,55.72
2023-04-28T15:47:51.932Z,55.30
2023-04-28T15:50:21.346Z,55.38
2023-04-28T15:52:50.855Z,55.33
2023-04-28T15:55:20.781Z,55.10
2023-04-28T15:57:49.963Z,55.00
2023-04-28T16:00:18.436Z,54.65
2023-04-28T16:02:47.830Z,54.58
2023-04-28T16:05:16.352Z,54.41
2023-04-28T16:07:45.315Z,54.07
2023-04-28T16:10:15.501Z,54.16
2023-04-28T16:12:44.313Z,54.00
2023-04-28T16:15:13.680Z,53.77
2023-04-28T16:17:42.602Z,53.56
2023-04-28T16:20:12.497Z,53.46
2023-04-28T16:22:42.453Z,53.24
2023-04-28T16:25:11.369Z,52.75
2023-04-28T16:27:41.564Z,52.58
2023-04-28T16:30:10.864Z,52.41
2023-04-28T16:32:39.228Z,52.56
2023-04-28T16:35:13.050Z,52.29
2023-04-28T16:37:43.860Z,52.28
2023-04-28T16:40:13.336Z,52.02
2023-04-28T16:42:42.939Z,52.26
2023-04-28T16:45:12.240Z,51.70
2023-04-28T16:47:45.294Z,51.39
2023-04-28T16:50:17.392Z,50.97
2023-04-28T16:52:46.211Z,50.50
2023-04-28T16:55:14.488Z,50.50
2023-04-28T16:57:42.789Z,50.40
2023-04-28T17:00:11.906Z,50.45
2023-04-28T17:02:40.259Z,50.31
2023-04-28T17:05:09.114Z,50.16
2023-04-28T17:07:37.395Z,49.98
2023-04-28T17:10:05.987Z,49.83
2023-04-28T17:12:34.267Z,49.87
2023-04-28T17:15:02.716Z,49.71
2023-04-28T17:17:30.991Z,49.62
2023-04-28T17:20:00.717Z,49.39
2023-04-28T17:22:31.518Z,49.06
2023-04-28T17:25:00.157Z,48.95
2023-04-28T17:27:28.421Z,49.28
2023-04-28T17:29:56.783Z,49.03
2023-04-28T17:32:25.144Z,48.90
2023-04-28T17:34:53.998Z,48.25
2023-04-28T17:37:22.369Z,48.41
2023-04-28T17:39:53.481Z,48.68
2023-04-28T17:42:21.909Z,48.69
2023-04-28T17:44:50.338Z,48.68
2023-04-28T17:47:18.714Z,48.65
2023-04-28T17:49:47.207Z,48.63
2023-04-28T17:52:16.336Z,48.45
2023-04-28T17:54:44.598Z,48.36
2023-04-28T17:57:13.934Z,48.36
2023-04-28T17:59:43.436Z,48.44
2023-04-28T18:02:12.553Z,48.34
2023-04-28T18:04:41.114Z,48.76
2023-04-28T18:07:09.385Z,48.81
2023-04-28T18:09:37.802Z,48.37
2023-04-28T18:12:06.429Z,48.73
2023-04-28T18:14:34.824Z,48.54
2023-04-28T18:17:03.042Z,48.39
2023-04-28T18:19:31.402Z,48.47
2023-04-28T18:21:59.758Z,48.38
2023-04-28T18:24:28.226Z,48.17
2023-04-28T18:26:56.494Z,48.22
2023-04-28T18:29:24.745Z,48.33
2023-04-28T18:31:53.398Z,48.17
2023-04-28T18:34:22.104Z,47.36
2023-04-28T18:36:50.840Z,47.61
2023-04-28T18:39:19.326Z,47.76
2023-04-28T18:41:47.870Z,47.07
2023-04-28T18:44:16.091Z,47.00
2023-04-28T18:46:44.327Z,47.26
2023-04-28T18:49:14.460Z,46.98
2023-04-28T18:51:42.862Z,46.60
2023-04-28T18:54:11.229Z,46.81
2023-04-28T18:56:39.498Z,46.78
2023-04-28T18:59:08.853Z,46.64
2023-04-28T19:01:37.744Z,46.72
2023-04-28T19:04:06.389Z,46.38
2023-04-28T19:06:34.849Z,46.10
2023-04-28T19:09:03.507Z,45.98
2023-04-28T19:11:31.808Z,46.24
2023-04-28T19:14:00.024Z,45.91
2023-04-28T19:16:28.284Z,46.28
2023-04-28T19:18:56.704Z,45.44
2023-04-28T19:21:25.653Z,45.54
2023-04-28T19:23:54.496Z,45.51
2023-04-28T19:26:22.783Z,45.05
2023-04-28T19:28:51.111Z,45.33
2023-04-28T19:31:19.401Z,44.92
2023-04-28T19:33:48.082Z,45.08
2023-04-28T19:36:16.309Z,44.85
2023-04-28T19:38:44.566Z,44.60
2023-04-28T19:41:13.506Z,44.59
2023-04-28T19:43:41.920Z,44.17
2023-04-28T19:46:10.181Z,43.99
2023-04-28T19:48:38.403Z,43.66
2023-04-28T19:51:06.822Z,43.73
2023-04-28T19:53:36.334Z,43.32
2023-04-28T19:56:04.809Z,43.43
2023-04-28T19:58:34.324Z,42.95
2023-04-28T20:01:02.624Z,43.09
2023-04-28T20:03:31.053Z,43.19
2023-04-28T20:06:00.083Z,43.00
2023-04-28T20:08:29.224Z,43.04
2023-04-28T20:10:57.502Z,42.44
2023-04-28T20:13:27.908Z,42.15
2023-04-28T20:15:56.695Z,41.94
2023-04-28T20:18:25.000Z,41.82
2023-04-28T20:20:56.664Z,40.47
2023-04-28T20:23:25.037Z,41.42
2023-04-28T20:25:53.476Z,41.06
2023-04-28T20:28:21.775Z,40.64
2023-04-28T20:30:50.026Z,40.36
2023-04-28T20:33:18.644Z,39.19
2023-04-28T20:35:47.126Z,39.87
2023-04-28T20:38:15.445Z,40.00
2023-04-28T20:40:45.050Z,40.22
2023-04-28T20:43:13.271Z,40.05
2023-04-28T20:45:42.800Z,40.33
2023-04-28T20:48:11.680Z,39.94
2023-04-28T20:50:41.795Z,39.50
2023-04-28T20:53:10.534Z,39.69
2023-04-28T20:55:38.806Z,39.48
2023-04-28T20:58:08.384Z,39.03
2023-04-28T21:00:40.834Z,38.81
2023-04-28T21:03:16.121Z,38.63
2023-04-28T21:05:47.575Z,37.49
2023-04-28T21:08:15.965Z,37.75
2023-04-28T21:10:44.318Z,37.89
2023-04-28T21:13:13.866Z,37.72
2023-04-28T21:15:42.401Z,37.25
2023-04-28T21:18:10.641Z,36.87
2023-04-28T21:20:38.930Z,36.66
2023-04-28T21:23:08.348Z,36.24
2023-04-28T21:25:37.544Z,35.69
2023-04-28T21:28:06.089Z,34.58
2023-04-28T21:30:34.295Z,35.64
2023-04-28T21:33:02.785Z,35.56
2023-04-28T21:35:31.138Z,35.07
2023-04-28T21:37:59.466Z,34.93
2023-04-28T21:40:27.810Z,34.88
2023-04-28T21:42:56.427Z,34.96
2023-04-28T21:45:24.813Z,34.63
2023-04-28T21:47:53.094Z,34.53
2023-04-28T21:50:21.354Z,34.11
2023-04-28T21:52:49.558Z,33.39
2023-04-28T21:55:17.893Z,33.67
2023-04-28T21:57:46.611Z,33.47
2023-04-28T22:00:15.477Z,33.89
2023-04-28T22:02:44.263Z,33.23
2023-04-28T22:05:12.748Z,33.34
2023-04-28T22:07:41.027Z,33.01
2023-04-28T22:10:10.618Z,33.49
2023-04-28T22:12:39.467Z,33.06
2023-04-28T22:15:08.392Z,33.24
2023-04-28T22:17:36.660Z,32.90
2023-04-28T22:20:06.130Z,33.23
2023-04-28T22:22:34.449Z,33.08
2023-04-28T22:25:02.859Z,32.94
2023-04-28T22:27:31.483Z,33.10
2023-04-28T22:29:59.756Z,32.94
2023-04-28T22:32:28.467Z,33.25
2023-04-28T22:34:56.841Z,33.49
2023-04-28T22:37:25.060Z,33.19
2023-04-28T22:39:53.527Z,32.81
2023-04-28T22:42:21.982Z,33.60
2023-04-28T22:44:50.261Z,32.93
2023-04-28T22:47:18.870Z,32.92
2023-04-28T22:49:47.460Z,32.54
2023-04-28T22:52:15.703Z,33.15
2023-04-28T22:54:43.979Z,33.05
2023-04-28T22:57:12.461Z,33.09
2023-04-28T22:59:40.668Z,33.05
2023-04-28T23:02:09.714Z,32.73
2023-04-28T23:04:38.104Z,32.78
2023-04-28T23:07:08.141Z,33.66
2023-04-28T23:09:38.069Z,33.55
2023-04-28T23:12:06.873Z,33.31
2023-04-28T23:14:35.329Z,33.99
2023-04-28T23:17:03.664Z,34.23
2023-04-28T23:19:32.577Z,34.35
2023-04-28T23:22:01.224Z,34.39
2023-04-28T23:24:29.923Z,34.86
2023-04-28T23:26:58.289Z,35.15
2023-04-28T23:29:27.031Z,35.57
2023-04-28T23:31:55.695Z,35.73
2023-04-28T23:34:24.328Z,35.78
2023-04-28T23:36:52.708Z,35.87
2023-04-28T23:39:21.028Z,35.61
2023-04-28T23:41:49.362Z,35.65
2023-04-28T23:44:18.112Z,35.34
2023-04-28T23:46:46.766Z,35.51
2023-04-28T23:49:14.992Z,35.40
2023-04-28T23:51:43.817Z,35.52
2023-04-28T23:54:12.489Z,35.92
2023-04-28T23:56:40.757Z,35.95
2023-04-28T23:59:09.252Z,36.19
